• Join FlightAware (Why Join?)
  • Login
  • US Flag 
09:17PM EDT


 

Airport Tracker/Info


-or-


 

Live Flight TrackerFlight Track Log ✈ N685GF ✈ 24-Apr-2013 ✈ KGIF - KPGD

Flight Track Log - Related Links

Times and Time Zones

All times are in EDT time to prevent confusion due to time zone crossing. See the N685GF flight status page for this flight to view local times or setup timezone preferences in your user account.

Time Position Orientation Groundspeed Altitude Reporting Facility
EDT Latitude Longitude Course Direction KTS MPH feet Rate Location/Type
05:42PM 28.1000 -81.7333 270° West 138 159 1,300  Level Tampa TRACON
05:43PM 28.1000 -81.7667 270° West 122 140 2,200 660 Climbing Tampa TRACON
05:43PM 28.0872 -81.7703 194° South 129 148 2,300 1,260 Climbing Miami Center
05:44PM 28.0456 -81.7708 181° South 141 162 4,000 300 Climbing Miami Center
05:45PM 28.0056 -81.7786 190° South 161 185 2,900 -600 Descending Miami Center
05:46PM 27.9575 -81.7836 185° South 124 143 2,800  Descending Miami Center
05:47PM 27.9092 -81.7908 188° South 162 186 2,900  Climbing Miami Center
05:48PM 27.8608 -81.8006 190° South 175 201 2,800 -60 Descending Miami Center
05:49PM 27.8125 -81.8100 190° South 180 207 2,800  Level Miami Center
05:50PM 27.7686 -81.8175 189° South 180 207 2,900  Climbing Miami Center
05:51PM 27.7158 -81.8294 191° South 180 207 2,900  Level Miami Center
05:52PM 27.6697 -81.8414 193° South 180 207 2,900  Level Miami Center
05:53PM 27.6214 -81.8508 190° South 180 207 2,900  Level Miami Center
05:54PM 27.5792 -81.8586 189° South 180 207 2,900  Level Miami Center
05:55PM 27.5225 -81.8700 190° South 180 207 2,900  Level Miami Center
05:56PM 27.4742 -81.8772 188° South 180 207 2,900  Level Miami Center
05:57PM 27.4258 -81.8869 190° South 180 207 2,900  Level Miami Center
05:58PM 27.3756 -81.8986 192° South 180 207 2,900  Level Miami Center
05:59PM 27.3269 -81.9131 195° South 180 207 2,900  Level Miami Center
06:00PM 27.2767 -81.9200 187° South 180 207 2,900 -60 Level Miami Center
06:01PM 27.2283 -81.9272 188° South 180 207 2,800 -120 Descending Miami Center
06:02PM 27.1781 -81.9369 190° South 180 207 2,700 -300 Descending Miami Center
06:03PM 27.1278 -81.9417 185° South 180 207 2,300 -540 Descending Miami Center
06:04PM 27.0733 -81.9461 184° South 180 207 1,700 -420 Descending Miami Center
06:05PM 27.0272 -81.9489 183° South 180 207 1,500 -300 Descending Miami Center
06:06PM 26.9856 -81.9469 178° South 169 194 1,100 -420 Descending Miami Center
06:08PM 26.9254 -81.9811 193° South  Level FlightAware Approximate